Time;durP1;ratioP1;P1;durP2;ratioP2;P2;SDS_P1;SDS_P2;PMS_P1;PMS_P2;Temp;Humidity;BMP_temperature;BMP_pressure;BME280_temperature;BME280_humidity;BME280_pressure;Samples;Min_cycle;Max_cycle;Signal;HPM_P1;HPM_P2
2022/04/04 00:02:05;;;;;;;6.23;5.63;;;;;;;1.12;100.00;99355.03;4898382;29;20230;-82
2022/04/04 00:04:34;;;;;;;7.87;5.93;;;;;;;1.20;100.00;99356.59;4857022;29;20207;-80
2022/04/04 00:07:03;;;;;;;6.93;5.73;;;;;;;1.15;100.00;99360.16;4857831;29;20299;-80
2022/04/04 00:09:32;;;;;;;7.37;5.90;;;;;;;1.24;100.00;99355.63;4861293;29;20208;-80
2022/04/04 00:12:02;;;;;;;6.07;5.43;;;;;;;0.99;100.00;99344.91;4859534;29;20220;-80
2022/04/04 00:14:31;;;;;;;7.67;5.50;;;;;;;0.89;100.00;99352.09;4879965;29;20212;-79
2022/04/04 00:17:03;;;;;;;7.23;5.67;;;;;;;1.01;100.00;99350.94;4895794;29;20234;-79
2022/04/04 00:19:33;;;;;;;8.83;5.90;;;;;;;1.11;100.00;99349.84;4882983;29;20220;-79
2022/04/04 00:22:02;;;;;;;7.60;6.10;;;;;;;1.07;100.00;99343.84;4908859;29;20275;-79
2022/04/04 00:24:31;;;;;;;7.53;5.83;;;;;;;0.99;100.00;99342.31;4950180;28;20228;-79
2022/04/04 00:27:01;;;;;;;9.83;6.17;;;;;;;0.92;100.00;99341.56;4950891;28;20292;-79
2022/04/04 00:29:32;;;;;;;7.23;6.03;;;;;;;0.83;100.00;99347.00;4948684;28;20205;-80
2022/04/04 00:32:02;;;;;;;6.63;5.63;;;;;;;0.90;100.00;99350.34;4977551;28;20226;-79
2022/04/04 00:34:33;;;;;;;8.87;6.67;;;;;;;0.78;100.00;99341.03;4973109;28;20206;-80
2022/04/04 00:37:05;;;;;;;8.13;6.30;;;;;;;0.97;100.00;99328.47;4970942;28;20204;-80
2022/04/04 00:39:35;;;;;;;7.03;6.00;;;;;;;0.90;100.00;99329.47;4952440;28;20200;-80
2022/04/04 00:42:07;;;;;;;8.50;6.10;;;;;;;0.90;100.00;99316.44;4949589;28;20231;-80
2022/04/04 00:44:38;;;;;;;10.17;6.27;;;;;;;0.91;100.00;99318.16;4930028;29;20212;-80
2022/04/04 00:47:08;;;;;;;8.50;5.93;;;;;;;0.79;100.00;99309.72;4928035;29;20200;-79
2022/04/04 00:49:38;;;;;;;5.93;5.20;;;;;;;0.88;100.00;99311.25;4933739;29;20205;-79
2022/04/04 00:52:07;;;;;;;7.07;5.83;;;;;;;0.90;100.00;99306.88;4932437;29;20243;-79
2022/04/04 00:54:38;;;;;;;7.47;5.80;;;;;;;0.78;100.00;99308.00;4896290;29;20206;-79
2022/04/04 00:57:12;;;;;;;6.30;5.07;;;;;;;0.72;100.00;99308.13;4896242;29;20205;-79
2022/04/04 00:59:42;;;;;;;11.47;6.33;;;;;;;0.68;100.00;99308.25;4915722;29;20198;-79
2022/04/04 01:02:10;;;;;;;6.77;5.50;;;;;;;0.45;100.00;99306.97;4917606;29;20276;-79
2022/04/04 01:04:41;;;;;;;5.57;5.07;;;;;;;0.53;100.00;99312.88;4926712;29;20268;-79
2022/04/04 01:07:10;;;;;;;9.87;5.37;;;;;;;0.36;100.00;99309.75;4933583;29;20205;-79
2022/04/04 01:09:40;;;;;;;6.80;5.20;;;;;;;0.31;100.00;99302.94;4931569;29;20207;-79
2022/04/04 01:12:11;;;;;;;6.90;5.13;;;;;;;0.17;100.00;99311.88;4928449;29;20284;-79
2022/04/04 01:14:45;;;;;;;6.70;5.93;;;;;;;0.07;100.00;99309.47;4932894;29;20684;-79
2022/04/04 01:17:15;;;;;;;6.10;5.43;;;;;;;0.06;100.00;99307.75;4934620;29;20221;-79
2022/04/04 01:19:46;;;;;;;7.20;5.97;;;;;;;0.33;100.00;99303.75;4898383;29;20237;-79
2022/04/04 01:22:16;;;;;;;7.03;5.50;;;;;;;0.28;100.00;99299.47;4898771;29;20206;-79
2022/04/04 01:24:47;;;;;;;7.57;6.13;;;;;;;0.22;100.00;99291.81;4899662;29;20233;-79
2022/04/04 01:27:17;;;;;;;7.40;5.63;;;;;;;0.34;100.00;99297.66;4951851;28;20200;-80
2022/04/04 01:29:48;;;;;;;6.97;6.00;;;;;;;0.36;100.00;99298.47;4953454;28;20388;-80
2022/04/04 01:32:16;;;;;;;8.47;6.30;;;;;;;0.49;100.00;99284.31;4949222;28;20687;-80
2022/04/04 01:34:45;;;;;;;8.00;5.87;;;;;;;0.44;100.00;99287.00;4948178;28;20211;-79
2022/04/04 01:37:14;;;;;;;6.97;5.73;;;;;;;0.32;100.00;99294.22;4953669;28;20351;-79
2022/04/04 01:39:43;;;;;;;6.33;5.73;;;;;;;0.45;100.00;99290.47;4975292;28;20208;-79
2022/04/04 01:42:20;;;;;;;6.80;5.67;;;;;;;0.36;100.00;99286.31;4974625;28;20196;-78
2022/04/04 01:44:51;;;;;;;6.57;5.83;;;;;;;0.26;100.00;99287.38;4976504;28;20214;-79
2022/04/04 01:47:20;;;;;;;8.00;5.93;;;;;;;0.14;100.00;99285.88;4979715;28;20211;-79
2022/04/04 01:49:48;;;;;;;7.63;6.00;;;;;;;0.39;100.00;99281.06;4936504;29;20288;-80
2022/04/04 01:52:19;;;;;;;8.00;6.10;;;;;;;0.13;100.00;99278.13;4933840;29;20221;-79
2022/04/04 01:54:47;;;;;;;7.57;5.77;;;;;;;0.16;100.00;99275.44;4935741;28;20337;-79
2022/04/04 01:57:17;;;;;;;6.53;5.57;;;;;;;0.08;100.00;99277.34;4929207;29;20247;-79
2022/04/04 01:59:46;;;;;;;7.23;5.50;;;;;;;0.24;100.00;99273.53;4934095;29;20205;-79
2022/04/04 02:02:17;;;;;;;7.13;5.83;;;;;;;0.17;100.00;99267.59;4933361;29;20197;-79
2022/04/04 02:04:47;;;;;;;7.47;5.60;;;;;;;0.36;100.00;99265.47;4932018;29;20196;-78
2022/04/04 02:07:18;;;;;;;7.67;5.73;;;;;;;0.38;100.00;99271.50;4941863;28;20546;-79
2022/04/04 02:09:47;;;;;;;7.30;5.90;;;;;;;0.16;100.00;99268.47;4982108;28;20242;-78
2022/04/04 02:12:21;;;;;;;7.63;6.00;;;;;;;0.22;100.00;99264.91;4988116;28;20249;-78
2022/04/04 02:14:49;;;;;;;9.00;6.20;;;;;;;0.37;100.00;99261.97;4988957;28;20201;-79
2022/04/04 02:17:18;;;;;;;7.30;6.50;;;;;;;0.37;100.00;99258.50;4989195;28;20192;-79
2022/04/04 02:19:48;;;;;;;8.70;5.87;;;;;;;0.41;100.00;99254.97;4980867;28;20204;-79
2022/04/04 02:22:17;;;;;;;7.33;6.17;;;;;;;0.22;100.00;99257.94;4970945;28;20262;-79
2022/04/04 02:24:46;;;;;;;7.77;6.20;;;;;;;0.09;100.00;99258.22;4974707;28;20247;-79
2022/04/04 02:27:14;;;;;;;8.83;6.87;;;;;;;0.22;100.00;99251.88;4966707;28;20210;-79
2022/04/04 02:29:45;;;;;;;8.83;6.63;;;;;;;0.27;100.00;99250.88;4953574;28;20192;-79
2022/04/04 02:32:14;;;;;;;8.90;6.63;;;;;;;0.15;100.00;99248.53;4947440;28;20224;-79
2022/04/04 02:34:43;;;;;;;7.73;6.70;;;;;;;0.10;100.00;99236.53;4952468;28;20212;-79
2022/04/04 02:37:12;;;;;;;9.43;7.43;;;;;;;0.14;100.00;99240.78;4952701;28;20652;-79
2022/04/04 02:39:43;;;;;;;9.57;7.57;;;;;;;0.13;100.00;99241.66;4949581;28;20316;-78
2022/04/04 02:42:13;;;;;;;8.20;7.10;;;;;;;0.07;100.00;99236.56;4950613;28;20200;-79
2022/04/04 02:44:44;;;;;;;10.10;7.80;;;;;;;0.05;100.00;99243.56;4954203;28;20204;-79
2022/04/04 02:47:15;;;;;;;8.90;7.07;;;;;;;0.10;100.00;99241.72;4951757;28;20204;-79
2022/04/04 02:49:44;;;;;;;12.63;7.53;;;;;;;-0.16;100.00;99237.91;4947470;28;20674;-79
2022/04/04 02:52:13;;;;;;;10.73;7.77;;;;;;;-0.22;100.00;99229.34;4948853;28;20224;-79
2022/04/04 02:54:42;;;;;;;13.33;7.87;;;;;;;-0.49;100.00;99238.50;4949041;28;20193;-79
2022/04/04 02:57:09;;;;;;;8.40;7.53;;;;;;;-0.53;100.00;99232.53;4948598;28;20224;-79
2022/04/04 02:59:38;;;;;;;11.10;7.60;;;;;;;-0.35;100.00;99234.78;4946631;28;20193;-79
2022/04/04 03:02:10;;;;;;;12.07;8.53;;;;;;;-0.23;100.00;99225.88;4949980;29;20201;-79
2022/04/04 03:04:42;;;;;;;10.43;8.27;;;;;;;-0.09;100.00;99229.09;4952531;28;20195;-78
2022/04/04 03:07:12;;;;;;;10.20;7.77;;;;;;;-0.10;100.00;99221.28;4942465;28;20195;-78
2022/04/04 03:09:42;;;;;;;11.23;8.23;;;;;;;-0.15;100.00;99212.72;4970330;28;20215;-79
2022/04/04 03:12:12;;;;;;;11.10;8.63;;;;;;;-0.40;100.00;99215.78;4970578;28;22158;-78
2022/04/04 03:14:41;;;;;;;9.67;8.47;;;;;;;-0.41;100.00;99208.00;4941169;28;20200;-78
2022/04/04 03:17:11;;;;;;;11.40;8.53;;;;;;;-0.28;100.00;99208.66;4975162;28;20215;-78
2022/04/04 03:19:42;;;;;;;10.90;8.80;;;;;;;-0.26;100.00;99212.94;4971942;28;20211;-79
2022/04/04 03:22:12;;;;;;;11.33;8.67;;;;;;;-0.32;100.00;99200.03;4965226;28;20278;-79
2022/04/04 03:24:40;;;;;;;10.67;8.83;;;;;;;-0.39;100.00;99204.50;4976834;28;20231;-78
2022/04/04 03:27:13;;;;;;;14.97;9.53;;;;;;;-0.19;100.00;99205.84;4971467;28;20687;-79
2022/04/04 03:29:45;;;;;;;14.37;9.57;;;;;;;-0.23;100.00;99197.25;4974701;28;20200;-79
2022/04/04 03:32:16;;;;;;;13.17;10.03;;;;;;;-0.20;100.00;99189.38;4976636;28;20592;-79
2022/04/04 03:34:46;;;;;;;12.23;9.57;;;;;;;-0.31;100.00;99186.13;4975170;28;20210;-79
2022/04/04 03:37:16;;;;;;;13.63;9.93;;;;;;;-0.27;100.00;99184.34;4973799;28;20203;-79
2022/04/04 03:39:45;;;;;;;14.43;10.10;;;;;;;-0.30;100.00;99193.91;4977031;28;20279;-79
2022/04/04 03:42:16;;;;;;;15.37;10.13;;;;;;;-0.24;100.00;99185.13;4973364;28;20291;-79
2022/04/04 03:44:44;;;;;;;14.17;10.20;;;;;;;-0.18;100.00;99184.16;4971917;28;20204;-79
2022/04/04 03:47:21;;;;;;;13.70;9.60;;;;;;;-0.13;100.00;99182.31;4977798;28;20200;-79
2022/04/04 03:49:53;;;;;;;15.80;10.03;;;;;;;-0.12;100.00;99178.81;4976965;28;20199;-79
2022/04/04 03:52:22;;;;;;;14.70;9.77;;;;;;;-0.14;100.00;99171.03;4970585;28;20191;-79
2022/04/04 03:54:51;;;;;;;13.23;10.30;;;;;;;-0.27;100.00;99177.41;4958640;28;20232;-79
2022/04/04 03:57:24;;;;;;;17.07;11.60;;;;;;;-0.28;100.00;99174.81;4973617;28;20199;-79
2022/04/04 03:59:52;;;;;;;23.87;15.17;;;;;;;-0.14;100.00;99170.19;4978647;28;20199;-79
2022/04/04 04:02:22;;;;;;;23.13;15.07;;;;;;;-0.26;100.00;99165.25;4976356;28;20199;-79
2022/04/04 04:04:51;;;;;;;21.03;14.13;;;;;;;-0.16;100.00;99161.56;4956290;28;20191;-79
2022/04/04 04:07:24;;;;;;;18.83;13.43;;;;;;;-0.39;100.00;99155.06;4978552;28;20234;-79
2022/04/04 04:09:53;;;;;;;17.33;12.57;;;;;;;-0.33;100.00;99151.50;4972225;28;20275;-81
2022/04/04 04:12:21;;;;;;;16.93;12.77;;;;;;;-0.32;100.00;99154.06;4968954;28;20282;-79
2022/04/04 04:14:52;;;;;;;18.03;13.07;;;;;;;-0.19;100.00;99149.47;4974621;28;20223;-79
2022/04/04 04:17:24;;;;;;;15.50;11.70;;;;;;;-0.36;100.00;99146.34;4970787;28;20207;-79
2022/04/04 04:22:39;;;;;;;17.37;11.50;;;;;;;-0.32;100.00;99143.66;4976342;28;20234;-79
2022/04/04 04:25:09;;;;;;;17.00;11.87;;;;;;;-0.27;100.00;99138.38;4952102;28;20235;-79
2022/04/04 04:27:39;;;;;;;15.07;11.63;;;;;;;-0.24;100.00;99129.63;4969556;28;20211;-79
2022/04/04 04:30:08;;;;;;;16.73;12.83;;;;;;;-0.26;100.00;99134.88;4974333;28;20208;-78
2022/04/04 04:32:38;;;;;;;16.63;12.47;;;;;;;-0.36;100.00;99136.81;4965232;28;20596;-78
2022/04/04 04:35:09;;;;;;;16.23;11.80;;;;;;;-0.33;100.00;99136.72;4976205;28;20267;-78
2022/04/04 04:37:39;;;;;;;16.13;12.17;;;;;;;-0.46;100.00;99137.88;4973676;28;20278;-79
2022/04/04 04:40:08;;;;;;;16.83;13.53;;;;;;;-0.46;100.00;99134.41;4975840;28;20227;-79
2022/04/04 04:42:38;;;;;;;16.23;12.27;;;;;;;-0.43;100.00;99131.75;4972067;28;20196;-79
2022/04/04 04:45:08;;;;;;;16.80;12.40;;;;;;;-0.35;100.00;99130.72;4953348;28;20196;-79
2022/04/04 04:47:38;;;;;;;16.77;12.30;;;;;;;-0.47;100.00;99136.16;4946580;28;20256;-79
2022/04/04 04:50:13;;;;;;;14.57;12.70;;;;;;;-0.33;100.00;99128.06;4951464;28;20235;-79
2022/04/04 04:52:42;;;;;;;17.80;12.97;;;;;;;-0.48;100.00;99129.25;4950938;28;20204;-79
2022/04/04 04:55:11;;;;;;;17.73;13.67;;;;;;;-0.39;100.00;99123.84;4952646;28;20338;-79
2022/04/04 04:57:42;;;;;;;26.20;17.93;;;;;;;-0.47;100.00;99122.31;4947858;28;20204;-79
2022/04/04 05:00:13;;;;;;;25.97;17.47;;;;;;;-0.47;100.00;99112.75;4952984;28;20219;-79
2022/04/04 05:02:44;;;;;;;26.67;17.93;;;;;;;-0.39;100.00;99110.81;4952268;28;20196;-79
2022/04/04 05:05:15;;;;;;;28.97;19.60;;;;;;;-0.47;100.00;99106.69;4969400;28;20204;-79
2022/04/04 05:07:46;;;;;;;30.53;19.43;;;;;;;-0.44;100.00;99114.44;4953389;28;20259;-79
2022/04/04 05:10:15;;;;;;;31.53;20.73;;;;;;;-0.35;100.00;99101.22;4933337;29;20209;-79
2022/04/04 05:12:43;;;;;;;32.97;20.33;;;;;;;-0.40;100.00;99103.91;4931189;29;20205;-79
2022/04/04 05:15:11;;;;;;;28.87;19.43;;;;;;;-0.46;100.00;99100.59;4929689;29;20225;-79
2022/04/04 05:17:40;;;;;;;29.13;19.90;;;;;;;-0.43;100.00;99103.13;4923830;29;20203;-80
2022/04/04 05:20:12;;;;;;;29.47;19.60;;;;;;;-0.52;100.00;99105.91;4932181;29;20201;-79
2022/04/04 05:22:41;;;;;;;25.67;17.93;;;;;;;-0.44;100.00;99106.63;4931974;29;20748;-78
2022/04/04 05:25:11;;;;;;;25.63;18.97;;;;;;;-0.35;100.00;99096.88;4929929;29;20229;-79
2022/04/04 05:27:40;;;;;;;21.83;17.30;;;;;;;-0.26;100.00;99095.84;4932198;29;20193;-79
2022/04/04 05:30:11;;;;;;;23.57;17.43;;;;;;;-0.41;100.00;99089.19;4932021;29;20245;-79
2022/04/04 05:32:41;;;;;;;23.70;18.40;;;;;;;-0.37;100.00;99092.59;4934476;29;20208;-79
2022/04/04 05:35:15;;;;;;;30.53;21.13;;;;;;;-0.45;100.00;99092.75;4963977;28;20224;-80
2022/04/04 05:37:45;;;;;;;24.13;18.10;;;;;;;-0.44;100.00;99098.81;4971859;28;20194;-79
2022/04/04 05:40:14;;;;;;;25.73;18.87;;;;;;;-0.40;100.00;99092.66;4969468;28;20204;-79
2022/04/04 05:42:44;;;;;;;23.07;17.93;;;;;;;-0.51;100.00;99097.22;4969301;28;20227;-79
2022/04/04 05:45:14;;;;;;;24.20;19.17;;;;;;;-0.49;100.00;99092.84;4971076;28;20287;-79
2022/04/04 05:47:43;;;;;;;25.47;19.87;;;;;;;-0.48;100.00;99099.75;4969741;28;20192;-79
2022/04/04 05:50:13;;;;;;;27.70;20.00;;;;;;;-0.39;100.00;99091.75;4965842;28;20195;-79
2022/04/04 05:52:43;;;;;;;26.77;19.37;;;;;;;-0.21;100.00;99087.91;4967888;28;20203;-79
2022/04/04 05:55:13;;;;;;;30.43;19.83;;;;;;;-0.34;100.00;99085.59;4967466;28;20698;-79
2022/04/04 05:57:42;;;;;;;29.27;19.10;;;;;;;-0.32;100.00;99088.16;4971104;28;20204;-79
2022/04/04 06:00:13;;;;;;;25.67;19.50;;;;;;;-0.30;100.00;99082.00;4970217;28;20274;-79
2022/04/04 06:02:43;;;;;;;28.40;19.10;;;;;;;-0.16;100.00;99079.13;4986994;28;20202;-79
2022/04/04 06:05:13;;;;;;;23.30;17.50;;;;;;;-0.25;100.00;99081.06;4973308;28;20752;-78
2022/04/04 06:07:42;;;;;;;23.47;18.00;;;;;;;-0.16;100.00;99079.13;4987022;28;20195;-79
2022/04/04 06:10:13;;;;;;;25.27;18.47;;;;;;;-0.33;100.00;99076.88;4986968;28;20226;-79
2022/04/04 06:12:43;;;;;;;24.33;18.97;;;;;;;-0.16;100.00;99073.94;4987651;28;20207;-79
2022/04/04 06:15:14;;;;;;;25.57;18.27;;;;;;;-0.10;100.00;99072.91;4942219;28;20244;-79
2022/04/04 06:17:44;;;;;;;25.20;18.07;;;;;;;0.05;100.00;99077.78;4985601;28;20349;-79
2022/04/04 06:20:15;;;;;;;24.40;18.37;;;;;;;-0.11;100.00;99060.78;4992068;28;20710;-78
2022/04/04 06:22:50;;;;;;;24.37;18.53;;;;;;;-0.01;100.00;99068.34;4979192;28;20275;-78
2022/04/04 06:25:21;;;;;;;25.53;18.40;;;;;;;0.13;100.00;99067.19;4976374;28;20227;-78
2022/04/04 06:27:50;;;;;;;23.47;18.10;;;;;;;0.24;100.00;99062.59;4972367;28;20202;-79
2022/04/04 06:30:22;;;;;;;27.13;19.17;;;;;;;0.32;100.00;99058.06;4952874;28;20279;-79
2022/04/04 06:32:53;;;;;;;26.13;19.10;;;;;;;0.42;100.00;99059.53;4971724;28;20203;-79
2022/04/04 06:35:25;;;;;;;22.17;17.60;;;;;;;0.41;100.00;99059.59;4973951;28;20310;-79
2022/04/04 06:37:54;;;;;;;22.33;17.53;;;;;;;0.35;100.00;99054.50;4971916;28;20227;-78
2022/04/04 06:40:25;;;;;;;24.13;17.27;;;;;;;0.36;100.00;99051.00;4971693;28;20636;-78
2022/04/04 06:42:56;;;;;;;21.07;17.37;;;;;;;0.32;100.00;99050.25;4968840;28;20246;-78
2022/04/04 06:45:26;;;;;;;21.37;17.07;;;;;;;0.42;100.00;99043.91;4972878;28;20352;-79
2022/04/04 06:47:54;;;;;;;22.27;16.50;;;;;;;0.59;100.00;99042.63;4974948;28;20215;-79
2022/04/04 06:50:26;;;;;;;23.03;16.80;;;;;;;0.59;100.00;99035.69;4972643;28;20246;-80
2022/04/04 06:52:55;;;;;;;23.17;18.77;;;;;;;0.98;100.00;99032.91;4976523;28;20214;-80
2022/04/04 06:55:44;;;;;;;21.57;17.37;;;;;;;0.93;100.00;99025.19;4976398;28;20227;-78
2022/04/04 06:58:13;;;;;;;30.23;22.10;;;;;;;1.07;100.00;99022.22;4975982;28;20651;-78
2022/04/04 07:00:42;;;;;;;21.03;17.23;;;;;;;1.10;100.00;99019.53;4976544;28;20655;-79
2022/04/04 07:03:11;;;;;;;20.50;17.03;;;;;;;1.15;100.00;99020.22;4971547;28;20204;-78
2022/04/04 07:05:42;;;;;;;19.67;17.23;;;;;;;1.42;100.00;99018.59;4972758;28;20259;-79
2022/04/04 07:08:11;;;;;;;19.70;16.33;;;;;;;1.37;100.00;99010.91;4972772;28;20231;-79
2022/04/04 07:10:48;;;;;;;25.70;19.30;;;;;;;1.48;100.00;99002.75;4975983;28;20195;-79
2022/04/04 07:13:16;;;;;;;21.03;17.77;;;;;;;1.52;100.00;99006.13;4974734;28;20204;-78
2022/04/04 07:15:45;;;;;;;21.73;17.57;;;;;;;1.80;100.00;99009.59;4975812;28;20212;-79
2022/04/04 07:18:16;;;;;;;20.00;16.17;;;;;;;1.95;100.00;99008.28;4952513;28;20710;-79
2022/04/04 07:20:47;;;;;;;21.33;16.50;;;;;;;1.89;100.00;99001.50;4946058;28;20200;-78
2022/04/04 07:23:16;;;;;;;24.23;17.77;;;;;;;2.05;100.00;98999.25;4953294;28;20208;-79
2022/04/04 07:25:46;;;;;;;18.33;14.97;;;;;;;1.81;100.00;99000.88;4948203;28;20718;-79
2022/04/04 07:28:15;;;;;;;15.13;13.53;;;;;;;1.98;100.00;98989.91;4912656;29;20209;-79
2022/04/04 07:30:44;;;;;;;16.60;14.80;;;;;;;2.00;100.00;98988.94;4911882;29;20206;-80
2022/04/04 07:33:15;;;;;;;16.43;14.73;;;;;;;2.08;100.00;98987.84;4914282;29;20288;-79
2022/04/04 07:35:46;;;;;;;17.60;14.63;;;;;;;2.41;100.00;98980.63;4913629;29;20304;-80
2022/04/04 07:38:16;;;;;;;16.20;14.17;;;;;;;2.68;100.00;98977.06;4916830;29;20212;-80
2022/04/04 07:40:45;;;;;;;15.13;13.53;;;;;;;2.84;100.00;98965.19;4915305;29;20225;-81
2022/04/04 07:43:13;;;;;;;16.03;14.33;;;;;;;2.92;100.00;98961.44;4936031;28;20734;-80
2022/04/04 07:45:42;;;;;;;15.80;13.30;;;;;;;2.97;100.00;98949.88;4928500;28;20196;-80
2022/04/04 07:48:11;;;;;;;19.57;13.70;;;;;;;3.06;100.00;98946.94;4987166;28;20261;-80
2022/04/04 07:50:41;;;;;;;15.43;13.80;;;;;;;2.64;100.00;98943.28;4991551;28;20239;-80
2022/04/04 07:53:13;;;;;;;17.53;14.50;;;;;;;2.83;100.00;98939.94;4988458;28;20202;-80
2022/04/04 07:55:41;;;;;;;15.90;13.80;;;;;;;2.73;100.00;98942.94;4988744;28;20239;-80
2022/04/04 07:58:13;;;;;;;15.67;14.10;;;;;;;2.90;100.00;98943.19;4988141;28;20214;-79
2022/04/04 08:00:42;;;;;;;17.20;14.17;;;;;;;2.98;100.00;98941.13;4990490;28;20651;-80
2022/04/04 08:03:12;;;;;;;15.77;12.77;;;;;;;3.25;100.00;98920.94;4992089;28;20195;-80
2022/04/04 08:05:49;;;;;;;14.70;11.87;;;;;;;3.56;100.00;98927.59;4955580;28;20267;-80
2022/04/04 08:08:19;;;;;;;12.20;11.00;;;;;;;3.94;100.00;98912.97;4949040;28;20205;-80
2022/04/04 08:10:47;;;;;;;12.43;10.67;;;;;;;4.10;100.00;98908.78;4954965;28;20656;-81
2022/04/04 08:13:15;;;;;;;12.57;10.20;;;;;;;4.30;100.00;98907.94;4954556;28;20193;-81
2022/04/04 08:15:45;;;;;;;12.83;11.63;;;;;;;4.26;100.00;98917.72;4949161;28;20220;-80
2022/04/04 08:18:13;;;;;;;11.80;10.57;;;;;;;4.46;100.00;98914.25;4955021;29;20212;-81
2022/04/04 08:20:42;;;;;;;11.77;10.47;;;;;;;4.44;100.00;98896.84;4950620;28;20351;-80
2022/04/04 08:23:29;;;;;;;11.23;10.13;;;;;;;4.55;100.00;98885.00;4954000;28;20199;-81
2022/04/04 08:25:58;;;;;;;11.17;9.90;;;;;;;4.77;100.00;98899.78;4950773;28;20538;-79
2022/04/04 08:28:27;;;;;;;14.27;12.77;;;;;;;4.84;100.00;98893.34;4952799;28;20273;-79
2022/04/04 08:30:57;;;;;;;9.27;8.20;;;;;;;4.99;100.00;98899.66;4970405;28;20304;-79
2022/04/04 08:33:27;;;;;;;9.43;7.67;;;;;;;4.92;100.00;98900.84;4975975;28;20199;-79
2022/04/04 08:35:57;;;;;;;10.17;9.27;;;;;;;4.84;100.00;98885.47;4970193;28;20228;-79
2022/04/04 08:38:27;;;;;;;11.53;8.60;;;;;;;4.96;100.00;98890.16;4953471;28;20204;-79
2022/04/04 08:40:57;;;;;;;8.83;7.47;;;;;;;5.01;100.00;98882.91;4949620;28;20303;-79
2022/04/04 08:43:28;;;;;;;9.53;7.47;;;;;;;5.16;100.00;98879.59;4953064;28;20205;-79
2022/04/04 08:45:56;;;;;;;8.77;7.70;;;;;;;5.23;100.00;98879.31;4950888;28;20345;-80
2022/04/04 08:48:25;;;;;;;8.57;7.67;;;;;;;5.30;100.00;98870.22;4954750;28;20189;-79
2022/04/04 08:50:54;;;;;;;7.97;7.17;;;;;;;5.48;100.00;98866.72;4946841;29;20247;-80
2022/04/04 08:53:22;;;;;;;7.80;6.97;;;;;;;5.54;100.00;98861.19;4949457;28;20212;-80
2022/04/04 08:55:57;;;;;;;7.27;6.57;;;;;;;5.52;100.00;98844.66;4954254;28;20215;-79
2022/04/04 08:58:26;;;;;;;9.30;6.40;;;;;;;5.44;100.00;98850.25;4972488;28;20203;-80
2022/04/04 09:00:55;;;;;;;7.30;6.60;;;;;;;5.56;100.00;98829.56;4972754;28;20203;-80
2022/04/04 09:03:29;;;;;;;7.63;6.93;;;;;;;5.95;100.00;98827.63;4957665;28;20206;-79
2022/04/04 09:05:59;;;;;;;7.67;6.87;;;;;;;5.72;100.00;98823.50;4975895;28;20212;-79
2022/04/04 09:08:29;;;;;;;7.67;6.73;;;;;;;5.58;100.00;98822.47;4976723;28;20199;-79
2022/04/04 09:11:01;;;;;;;8.67;6.87;;;;;;;5.76;100.00;98813.69;4966084;28;20259;-80
2022/04/04 09:13:30;;;;;;;7.10;6.40;;;;;;;5.94;100.00;98797.00;4973915;28;20250;-79
2022/04/04 09:16:01;;;;;;;11.53;6.80;;;;;;;6.02;100.00;98799.25;4975315;28;20423;-79
2022/04/04 09:18:46;;;;;;;6.30;5.70;;;;;;;5.79;100.00;98794.28;4973988;28;20208;-79
2022/04/04 09:21:31;;;;;;;9.37;6.40;;;;;;;5.76;100.00;98782.16;4974512;28;20243;-80
2022/04/04 09:24:07;;;;;;;7.37;6.57;;;;;;;5.77;100.00;98777.72;4974774;28;20216;-79
2022/04/04 09:26:40;;;;;;;6.80;6.10;;;;;;;5.62;100.00;98785.47;4973889;28;20192;-79
2022/04/04 09:29:19;;;;;;;6.23;5.73;;;;;;;5.88;100.00;98775.41;4975311;28;20201;-79
2022/04/04 09:31:55;;;;;;;6.00;4.53;;;;;;;5.79;100.00;98789.00;4974351;28;20203;-80
2022/04/04 09:34:23;;;;;;;5.97;4.90;;;;;;;5.94;100.00;98747.06;4971529;28;20647;-80
2022/04/04 09:36:53;;;;;;;8.63;5.47;;;;;;;5.89;100.00;98761.38;4969639;28;20223;-80
2022/04/04 09:39:21;;;;;;;5.53;4.57;;;;;;;5.90;100.00;98742.03;4970941;28;20192;-79
2022/04/04 09:41:51;;;;;;;7.43;4.93;;;;;;;5.91;100.00;98734.09;4973839;28;20188;-79
2022/04/04 09:44:25;;;;;;;7.27;4.33;;;;;;;6.04;100.00;98736.94;4975158;28;20203;-78
2022/04/04 09:46:54;;;;;;;4.80;4.27;;;;;;;6.11;100.00;98725.16;4975076;28;20739;-78
2022/04/04 09:49:23;;;;;;;5.23;4.67;;;;;;;6.24;100.00;98730.63;4974097;28;20200;-79
2022/04/04 09:51:52;;;;;;;5.13;4.63;;;;;;;6.15;100.00;98739.84;4974598;28;20203;-78
2022/04/04 09:54:23;;;;;;;5.03;4.53;;;;;;;6.12;100.00;98740.00;4974994;28;20364;-79
2022/04/04 09:56:57;;;;;;;5.50;4.00;;;;;;;6.19;100.00;98701.94;4973418;28;20215;-79
2022/04/04 09:59:33;;;;;;;5.10;4.40;;;;;;;6.12;99.93;98713.72;4974860;28;20210;-79
2022/04/04 10:02:02;;;;;;;4.30;3.90;;;;;;;6.01;99.45;98703.78;4971499;28;20639;-81
2022/04/04 10:04:32;;;;;;;4.97;3.70;;;;;;;6.08;98.59;98701.69;4969820;28;20192;-79
2022/04/04 10:07:07;;;;;;;4.80;4.40;;;;;;;6.23;99.52;98727.16;4974653;28;20207;-79
2022/04/04 10:09:37;;;;;;;5.00;4.00;;;;;;;6.22;98.65;98700.94;4974559;28;20246;-80
2022/04/04 10:12:09;;;;;;;4.20;3.80;;;;;;;6.24;97.42;98702.53;4972968;28;20203;-79
2022/04/04 10:14:38;;;;;;;5.13;4.07;;;;;;;6.30;95.98;98699.59;4974181;28;20204;-80
2022/04/04 10:17:07;;;;;;;6.80;4.37;;;;;;;6.31;95.36;98705.69;4968717;28;20226;-80
2022/04/04 10:19:36;;;;;;;4.50;4.10;;;;;;;6.36;95.59;98690.50;4970585;28;20207;-79
2022/04/04 10:22:05;;;;;;;4.80;4.20;;;;;;;6.24;95.87;98689.41;4975851;28;20202;-79
2022/04/04 10:24:36;;;;;;;6.13;4.20;;;;;;;6.46;96.61;98668.03;4956880;28;20227;-80
2022/04/04 10:27:12;;;;;;;5.70;4.40;;;;;;;6.48;94.21;98674.06;4974912;28;20202;-81
2022/04/04 10:29:44;;;;;;;4.53;3.70;;;;;;;6.55;92.55;98662.25;4977267;28;20231;-81
2022/04/04 10:32:23;;;;;;;4.63;4.20;;;;;;;6.64;92.98;98653.00;4978205;28;20207;-81
2022/04/04 10:34:52;;;;;;;7.70;4.50;;;;;;;6.66;91.20;98651.16;4977052;28;20258;-82
2022/04/04 10:37:22;;;;;;;5.50;4.23;;;;;;;6.58;89.28;98664.72;4975151;28;20215;-81
2022/04/04 10:39:50;;;;;;;5.93;4.00;;;;;;;6.50;89.38;98645.91;4977688;28;20701;-81
2022/04/04 10:42:30;;;;;;;5.93;3.83;;;;;;;6.48;85.29;98662.69;4976690;28;20280;-80
2022/04/04 10:45:07;;;;;;;4.23;3.60;;;;;;;6.23;83.10;98624.59;4975460;28;20258;-82
2022/04/04 10:47:37;;;;;;;4.10;3.70;;;;;;;6.40;84.23;98628.94;4975570;28;20202;-80
2022/04/04 10:50:21;;;;;;;4.53;4.03;;;;;;;6.58;85.40;98622.63;4975236;28;20210;-80
2022/04/04 10:52:51;;;;;;;4.63;3.70;;;;;;;6.62;84.89;98614.56;4977967;28;20195;-81
2022/04/04 10:55:44;;;;;;;4.33;3.93;;;;;;;6.41;81.16;98616.63;4978125;28;20287;-80
2022/04/04 10:58:22;;;;;;;5.97;3.93;;;;;;;6.63;83.06;98617.09;4975006;28;20219;-79
2022/04/04 11:01:03;;;;;;;4.67;3.90;;;;;;;6.56;83.80;98603.47;4979291;28;20255;-80
2022/04/04 11:03:34;;;;;;;6.17;4.30;;;;;;;6.72;86.63;98585.00;4978578;28;20207;-80
2022/04/04 11:09:26;;;;;;;4.60;4.00;;;;;;;6.83;84.64;98603.66;4977572;28;20214;-80
2022/04/04 11:12:09;;;;;;;6.03;4.17;;;;;;;6.71;83.07;98580.69;4976196;28;20194;-81
2022/04/04 11:14:57;;;;;;;4.50;4.07;;;;;;;6.97;83.71;98580.97;4975638;28;20204;-80
2022/04/04 11:17:33;;;;;;;5.00;4.10;;;;;;;6.80;83.14;98585.41;4972918;28;20284;-79
2022/04/04 11:20:10;;;;;;;4.67;4.23;;;;;;;6.68;82.19;98556.34;4969101;28;20259;-79
2022/04/04 11:22:45;;;;;;;4.80;4.30;;;;;;;6.92;83.60;98573.31;4976220;28;20223;-79
2022/04/04 11:25:19;;;;;;;6.37;4.50;;;;;;;6.86;84.29;98553.47;4977790;28;20219;-79
2022/04/04 11:27:49;;;;;;;5.43;4.03;;;;;;;6.95;85.31;98560.00;4974339;28;20192;-79
2022/04/04 11:30:24;;;;;;;4.93;4.50;;;;;;;6.96;84.09;98548.53;4973202;28;20204;-79
2022/04/04 11:32:54;;;;;;;5.30;4.53;;;;;;;6.72;83.25;98550.78;4940159;28;20219;-79
2022/04/04 11:35:27;;;;;;;6.20;4.97;;;;;;;6.86;83.30;98537.69;4973557;28;20207;-79
2022/04/04 11:37:57;;;;;;;4.73;4.33;;;;;;;6.81;83.56;98541.50;4972539;28;20226;-79
2022/04/04 11:40:29;;;;;;;5.27;4.07;;;;;;;7.06;84.80;98538.28;4978248;28;20262;-79
2022/04/04 11:42:59;;;;;;;4.80;4.37;;;;;;;7.10;82.73;98535.38;4976441;28;20260;-79
2022/04/04 11:45:32;;;;;;;5.93;4.67;;;;;;;7.15;82.68;98509.63;4976922;28;20274;-79
2022/04/04 11:48:02;;;;;;;5.60;4.27;;;;;;;7.42;82.15;98517.59;4977247;28;20623;-79